• Join FlightAware (Why Join?)
  • Login
  • US Flag 
04:16PM EDT


 

Airport Tracker/Info


-or-


 

Live Flight TrackerFlight Track Log ✈ MAL7070 ✈ 03-May-2012 ✈ CYYC - CYWG

Flight Track Log - Related Links

Times and Time Zones

All times are in EDT time to prevent confusion due to time zone crossing. See the MAL7070 flight status page for this flight to view local times or setup timezone preferences in your user account.

Time Position Orientation Groundspeed Altitude Reporting Facility
EDT Latitude Longitude Course Direction KTS MPH feet Rate Location/Type
10:15PM 51.1000 -113.7912 244° Southwest  Level FlightAware Approximate
10:16PM 51.0667 -113.9000 103° East 230 265 8,000  Level Edmonton Center
10:17PM 51.0500 -113.7833 90° East 280 322 10,700 2,160 Climbing Edmonton Center
10:18PM 51.0500 -113.6167 90° East 360 414 12,400 2,220 Climbing Edmonton Center
10:19PM 51.0500 -113.4667 90° East 390 449 15,200 3,000 Climbing Edmonton Center
10:20PM 51.0500 -113.2667 99° East 400 460 18,400 2,700 Climbing Edmonton Center
10:21PM 51.0333 -113.1000 90° East 410 472 20,700 2,220 Climbing Edmonton Center
10:22PM 51.0333 -112.8833 90° East 420 483 22,900 2,040 Climbing Edmonton Center
10:23PM 51.0333 -112.7000 90° East 440 506 24,800 1,860 Climbing Edmonton Center
10:24PM 51.0333 -112.5167 90° East 450 518 26,700 1,800 Climbing Edmonton Center
10:25PM 51.0333 -112.3667 90° East 460 529 28,200 1,980 Climbing Winnipeg Center
10:26PM 51.0333 -112.1500 98° East 470 541 30,400 2,160 Climbing Winnipeg Center
10:27PM 51.0167 -111.9667 90° East 460 529 32,600 1,800 Climbing Winnipeg Center
10:28PM 51.0167 -111.7500 97° East 460 529 34,000 1,320 Climbing Winnipeg Center
10:29PM 51.0000 -111.5500 97° East 460 529 35,300 1,200 Climbing Winnipeg Center
10:30PM 50.9833 -111.3333 97° East 470 541 36,400 840 Climbing Winnipeg Center
10:31PM 50.9667 -111.1333 90° East 480 552 37,000 300 Climbing Winnipeg Center
10:32PM 50.9667 -110.9167 97° East 480 552 37,000  Level Winnipeg Center
10:33PM 50.9500 -110.7000 97° East 480 552 37,000  Level Winnipeg Center
10:34PM 50.9333 -110.5000 96° East 480 552 37,000  Level Winnipeg Center
10:35PM 50.9167 -110.2667 90° East 480 552 37,000 180 Level Winnipeg Center
10:36PM 50.9167 -110.0667 97° East 480 552 37,400 780 Climbing Winnipeg Center
10:37PM 50.9000 -109.8500 90° East 480 552 38,600 1,200 Climbing Winnipeg Center
10:38PM 50.9000 -109.6333 97° East 490 564 39,800 1,080 Climbing Winnipeg Center
10:39PM 50.8833 -109.4167 90° East 490 564 40,800 600 Climbing Winnipeg Center
10:40PM 50.8833 -109.2167 97° East 480 552 41,000 60 Climbing Winnipeg Center
10:41PM 50.8667 -109.0167 90° East 470 541 41,000  Level Winnipeg Center
10:42PM 50.8667 -108.8000 90° East 470 541 41,000  Level Winnipeg Center
10:43PM 50.8667 -108.6167 97° East 470 541 41,000  Level Winnipeg Center
10:44PM 50.8500 -108.4000 90° East 470 541 41,000  Level Winnipeg Center
10:45PM 50.8500 -108.1833 97° East 480 552 41,000  Level Winnipeg Center
10:46PM 50.8333 -107.9667 90° East 480 552 41,000  Level Winnipeg Center
10:47PM 50.8333 -107.7500 98° East 480 552 41,000  Level Winnipeg Center
10:48PM 50.8167 -107.5667 96° East 490 564 41,000  Level Winnipeg Center
10:49PM 50.8000 -107.3167 90° East 490 564 41,000  Level Winnipeg Center
10:50PM 50.8000 -107.1333 90° East 490 564 41,000  Level Winnipeg Center
10:51PM 50.8000 -106.8833 106° East 490 564 41,000  Level Winnipeg Center
10:52PM 50.7667 -106.7000 90° East 490 564 41,000  Level Winnipeg Center
10:53PM 50.7667 -106.4833 90° East 490 564 41,000  Level Winnipeg Center
10:54PM 50.7667 -106.2500 97° East 490 564 41,000  Level Winnipeg Center
10:55PM 50.7500 -106.0500 97° East 490 564 41,000  Level Winnipeg Center
10:56PM 50.7333 -105.8333 97° East 490 564 41,000  Level Winnipeg Center
10:57PM 50.7167 -105.6167 90° East 490 564 41,000  Level Winnipeg Center
10:58PM 50.7167 -105.4167 104° East 490 564 41,000  Level Winnipeg Center
10:59PM 50.6833 -105.2000 97° East 490 564 41,000  Level Winnipeg Center
11:00PM 50.6667 -104.9833 90° East 490 564 41,000  Level Winnipeg Center
11:01PM 50.6667 -104.7667 97° East 490 564 41,000  Level Winnipeg Center
11:02PM 50.6500 -104.5500 97° East 490 564 41,000  Level Winnipeg Center
11:03PM 50.6333 -104.3333 97° East 490 564 41,000  Level Winnipeg Center
11:04PM 50.6167 -104.1167 97° East 490 564 41,000  Level Winnipeg Center
11:05PM 50.6000 -103.9000 98° East 490 564 41,000  Level Winnipeg Center
11:06PM 50.5833 -103.7167 96° East 490 564 41,000  Level Winnipeg Center
11:07PM 50.5667 -103.4833 90° East 490 564 41,000  Level Winnipeg Center
11:08PM 50.5667 -103.3000 102° East 490 564 41,000  Level Winnipeg Center
11:09PM 50.5333 -103.0500 97° East 490 564 41,000  Level Winnipeg Center
11:10PM 50.5167 -102.8333 98° East 490 564 41,000  Level Winnipeg Center
11:11PM 50.5000 -102.6500 103° East 490 564 41,000  Level Winnipeg Center
11:12PM 50.4667 -102.4167 90° East 500 575 41,000  Level Winnipeg Center
11:13PM 50.4667 -102.2000 103° East 500 575 41,000  Level Winnipeg Center
11:14PM 50.4333 -101.9833 97° East 500 575 41,000  Level Winnipeg Center
11:15PM 50.4167 -101.7667 103° East 500 575 41,000  Level Winnipeg Center
11:16PM 50.3833 -101.5333 90° East 500 575 41,000  Level Winnipeg Center
11:17PM 50.3833 -101.3167 105° East 510 587 41,000  Level Winnipeg Center
11:18PM 50.3500 -101.1167 97° East 510 587 41,000  Level Winnipeg Center
11:19PM 50.3333 -100.9000 97° East 510 587 41,000  Level Winnipeg Center
11:20PM 50.3167 -100.6833 96° East 510 587 41,000 -480 Level Winnipeg Center
11:21PM 50.3000 -100.4500 97° East 510 587 40,100 -1,860 Descending Winnipeg Center
11:22PM 50.2833 -100.2333 103° East 520 598 37,300 -3,180 Descending Winnipeg Center
11:23PM 50.2500 -100.0000 90° East 530 610 33,800 -3,600 Descending Winnipeg Center
11:24PM 50.2500 -99.7667 102° East 540 621 30,200 -3,540 Descending Winnipeg Center
11:25PM 50.2167 -99.5333 97° East 540 621 26,800 -3,000 Descending Winnipeg Center
11:26PM 50.2000 -99.3167 97° East 520 598 24,200 -2,580 Descending Winnipeg Center
11:27PM 50.1833 -99.1000 97° East 490 564 21,700 -2,400 Descending Winnipeg Center
11:28PM 50.1667 -98.9000 106° East 460 529 19,500 -2,340 Descending Winnipeg Center
11:29PM 50.1333 -98.7167 99° East 440 506 17,100 -2,340 Descending Winnipeg Center
11:30PM 50.1167 -98.5500 98° East 410 472 14,900 -2,340 Descending Winnipeg Center
11:31PM 50.1000 -98.3667 100° East 390 449 12,500 -2,220 Descending Winnipeg Center
11:32PM 50.0833 -98.2167 101° East 370 426 10,500 -1,200 Descending Winnipeg Center
11:33PM 50.0667 -98.0833 90° East 330 380 10,100 -900 Descending Winnipeg Center
11:34PM 50.0667 -97.9500 90° East 290 334 8,700 -1,380 Descending Winnipeg Center
11:35PM 50.0667 -97.8500 90° East 270 311 7,400 -1,500 Descending Winnipeg Center
11:36PM 50.0667 -97.7167 90° East 260 299 5,700 -1,320 Descending Winnipeg Center
11:37PM 50.0667 -97.6167 90° East 260 299 4,800 -780 Descending Winnipeg Center
11:38PM 50.0667 -97.5333 105° East 240 276 4,200 -600 Descending Winnipeg Center
11:39PM 50.0500 -97.4333 147° Southeast 220 253 3,700 -360 Descending Winnipeg Center
11:40PM 50.0000 -97.3833 136° Southeast 200 230 3,500 -480 Descending Winnipeg Center
11:41PM 49.9667 -97.3333 128° Southeast 150 173 2,800 -780 Descending Winnipeg Center
11:42PM 49.9500 -97.3000 162° South 140 161 2,000 -780 Descending Winnipeg Center
11:43PM 49.9167 -97.2833 136° Southeast 130 150 1,300 -600 Descending Winnipeg Center
11:44PM 49.8833 -97.2333 136° Southeast 130 150 900 -420 Descending Winnipeg Center